Terminal Aerodrome Forecast
Issued by NWS Grand Junction, CO

Home | Current Version | Previous Version | Text Only | Print | Product List | Glossary On
Versions: 1 2 3 4 5 6 7 8 9 10 11 12 13 14 15 16 17 18 19 20 21 22 23 24 25 26
000
FTUS45 KGJT 161120
TAFGJT
TAF
KGJT 161120Z 1612/1712 05011KT P6SM BKN120
     FM161500 02005KT P6SM FEW060 SCT080
     FM161900 35005KT P6SM FEW060 SCT250
     FM170500 09006KT P6SM SCT250=

USA.gov is the U.S. government's official web portal to all federal, state and local government web resources and services.